Time;durP1;ratioP1;P1;durP2;ratioP2;P2;SDS_P1;SDS_P2;PMS_P1;PMS_P2;Temp;Humidity;BMP_temperature;BMP_pressure;BME280_temperature;BME280_humidity;BME280_pressure;Samples;Min_cycle;Max_cycle;Signal;HPM_P1;HPM_P2
2022/04/22 00:01:27;;;;;;;6.20;6.10;;;;;;;;;;5051349;28;20197;-63
2022/04/22 00:03:53;;;;;;;17.13;16.52;;;;;;;;;;5051508;28;20237;-63
2022/04/22 00:06:19;;;;;;;14.90;14.40;;;;;;;;;;5050656;28;20187;-63
2022/04/22 00:08:45;;;;;;;14.57;14.07;;;;;;;;;;5051253;28;20402;-63
2022/04/22 00:11:29;;;;;;;9.63;9.43;;;;;;;;;;5051188;28;20176;-63
2022/04/22 00:13:57;;;;;;;10.55;10.25;;;;;;;;;;5051248;28;20845;-63
2022/04/22 00:16:23;;;;;;;6.00;5.90;;;;;;;;;;5051257;28;20188;-63
2022/04/22 00:18:49;;;;;;;8.80;8.60;;;;;;;;;;5051400;28;20203;-63
2022/04/22 00:21:15;;;;;;;14.68;14.18;;;;;;;;;;5051003;28;20195;-63
2022/04/22 00:23:41;;;;;;;11.77;11.40;;;;;;;;;;5051114;28;20238;-63
2022/04/22 00:26:07;;;;;;;15.90;15.32;;;;;;;;;;5051419;28;20453;-62
2022/04/22 00:28:33;;;;;;;15.40;14.90;;;;;;;;;;5051301;28;20212;-63
2022/04/22 00:30:59;;;;;;;10.55;10.27;;;;;;;;;;5051029;28;20176;-63
2022/04/22 00:33:25;;;;;;;9.30;9.00;;;;;;;;;;5051205;28;20529;-65
2022/04/22 00:35:51;;;;;;;11.30;11.00;;;;;;;;;;5050901;28;20488;-63
2022/04/22 00:38:17;;;;;;;14.15;13.75;;;;;;;;;;5051139;28;20418;-63
2022/04/22 00:40:43;;;;;;;9.53;9.23;;;;;;;;;;5050870;28;20168;-64
2022/04/22 00:43:20;;;;;;;1.58;1.58;;;;;;;;;;5051039;28;20477;-63
2022/04/22 00:45:46;;;;;;;1.67;1.67;;;;;;;;;;5051118;28;20183;-63
2022/04/22 00:48:12;;;;;;;2.15;2.15;;;;;;;;;;5050758;28;20176;-64
2022/04/22 00:50:39;;;;;;;2.35;2.25;;;;;;;;;;5050797;28;20267;-61
2022/04/22 00:53:06;;;;;;;11.02;10.73;;;;;;;;;;5050980;28;20211;-62
2022/04/22 00:55:32;;;;;;;15.60;15.10;;;;;;;;;;5050619;28;20208;-64
2022/04/22 00:57:59;;;;;;;18.55;17.85;;;;;;;;;;5053595;28;20176;-61
2022/04/22 01:00:25;;;;;;;17.25;16.65;;;;;;;;;;5054488;28;20324;-62
2022/04/22 01:02:51;;;;;;;18.45;17.75;;;;;;;;;;5054594;28;20181;-62
2022/04/22 01:10:47;;;;;;;6.28;6.18;;;;;;;;;;5054222;28;20190;-62
2022/04/22 01:13:13;;;;;;;24.48;23.27;;;;;;;;;;5054433;28;20206;-62
2022/04/22 01:15:39;;;;;;;21.50;20.52;;;;;;;;;;5054457;28;20744;-62
2022/04/22 01:18:06;;;;;;;24.90;23.65;;;;;;;;;;5054498;28;20651;-63
2022/04/22 01:20:32;;;;;;;18.05;17.35;;;;;;;;;;5054287;28;20172;-62
2022/04/22 01:22:58;;;;;;;17.03;16.43;;;;;;;;;;5054367;28;20168;-62
2022/04/22 01:25:24;;;;;;;14.60;14.10;;;;;;;;;;5054188;28;20952;-62
2022/04/22 01:27:51;;;;;;;12.05;11.70;;;;;;;;;;5053672;28;20448;-63
2022/04/22 01:30:21;;;;;;;12.38;11.88;;;;;;;;;;5053994;28;20187;-62
2022/04/22 01:32:48;;;;;;;11.00;10.70;;;;;;;;;;5054166;28;20313;-62
2022/04/22 01:35:14;;;;;;;7.80;7.60;;;;;;;;;;5053933;28;20192;-64
2022/04/22 01:37:42;;;;;;;7.17;6.97;;;;;;;;;;5054127;28;20164;-65
2022/04/22 01:40:08;;;;;;;15.73;15.13;;;;;;;;;;5053648;28;20410;-62
2022/04/22 01:42:34;;;;;;;11.50;11.20;;;;;;;;;;5054017;28;20583;-63
2022/04/22 01:45:00;;;;;;;14.93;14.43;;;;;;;;;;5053928;28;20226;-63
2022/04/22 01:47:26;;;;;;;20.60;19.70;;;;;;;;;;5053930;28;20172;-63
2022/04/22 01:49:52;;;;;;;20.27;19.40;;;;;;;;;;5053800;28;20417;-63
2022/04/22 01:52:19;;;;;;;24.48;23.27;;;;;;;;;;5053718;28;20523;-63
2022/04/22 01:54:45;;;;;;;18.50;17.70;;;;;;;;;;5053513;28;20230;-63
2022/04/22 01:57:11;;;;;;;4.57;4.47;;;;;;;;;;5053748;28;20245;-62
2022/04/22 01:59:37;;;;;;;3.77;3.67;;;;;;;;;;5053769;28;20252;-64
2022/04/22 02:02:03;;;;;;;1.70;1.70;;;;;;;;;;5053280;28;20407;-61
2022/04/22 02:04:29;;;;;;;1.33;1.33;;;;;;;;;;5053345;28;20433;-62
2022/04/22 02:06:55;;;;;;;1.20;1.20;;;;;;;;;;5053260;28;20183;-63
2022/04/22 02:09:21;;;;;;;2.38;2.30;;;;;;;;;;5052410;28;20902;-62
2022/04/22 02:11:47;;;;;;;2.10;2.10;;;;;;;;;;5053266;28;20201;-63
2022/04/22 02:14:13;;;;;;;3.90;3.80;;;;;;;;;;5052944;28;20195;-63
2022/04/22 02:16:39;;;;;;;11.70;11.40;;;;;;;;;;5052991;28;20446;-63
2022/04/22 02:19:05;;;;;;;18.17;17.48;;;;;;;;;;5053348;28;20461;-63
2022/04/22 02:21:31;;;;;;;17.40;16.70;;;;;;;;;;5053149;28;20198;-63
2022/04/22 02:23:57;;;;;;;23.30;22.17;;;;;;;;;;5052998;28;20812;-62
2022/04/22 02:26:23;;;;;;;13.90;13.40;;;;;;;;;;5053071;28;20172;-62
2022/04/22 02:28:49;;;;;;;19.02;18.23;;;;;;;;;;5053329;28;20413;-64
2022/04/22 02:31:15;;;;;;;21.90;20.87;;;;;;;;;;5052918;28;20186;-62
2022/04/22 02:33:42;;;;;;;23.70;22.48;;;;;;;;;;5052940;28;20472;-63
2022/04/22 02:36:09;;;;;;;28.02;26.45;;;;;;;;;;5053080;28;20196;-62
2022/04/22 02:38:35;;;;;;;31.52;29.50;;;;;;;;;;5052603;28;20167;-61
2022/04/22 02:46:30;;;;;;;29.77;27.98;;;;;;;;;;5052911;28;20183;-63
2022/04/22 02:48:58;;;;;;;29.35;27.63;;;;;;;;;;5052608;28;20182;-62
2022/04/22 02:51:24;;;;;;;20.77;19.85;;;;;;;;;;5052348;28;20198;-63
2022/04/22 02:53:50;;;;;;;17.55;16.85;;;;;;;;;;5052619;28;20730;-61
2022/04/22 02:56:17;;;;;;;17.17;16.48;;;;;;;;;;5052728;28;20288;-63
2022/04/22 02:58:43;;;;;;;23.23;22.00;;;;;;;;;;5052609;28;20182;-63
2022/04/22 03:01:09;;;;;;;21.80;20.70;;;;;;;;;;5052276;28;20168;-63
2022/04/22 03:03:35;;;;;;;23.52;22.33;;;;;;;;;;5052233;28;20955;-63
2022/04/22 03:06:02;;;;;;;14.32;13.82;;;;;;;;;;5052300;28;20188;-63
2022/04/22 03:08:28;;;;;;;16.77;16.08;;;;;;;;;;5051601;28;20187;-63
2022/04/22 03:10:54;;;;;;;20.33;19.42;;;;;;;;;;5052086;28;20178;-63
2022/04/22 03:13:20;;;;;;;17.30;16.58;;;;;;;;;;5052265;28;20180;-64
2022/04/22 03:15:46;;;;;;;17.65;16.95;;;;;;;;;;5052213;28;20214;-63
2022/04/22 03:18:12;;;;;;;18.35;17.58;;;;;;;;;;5052116;28;20225;-63
2022/04/22 03:20:38;;;;;;;21.27;20.27;;;;;;;;;;5051722;28;20167;-63
2022/04/22 03:23:04;;;;;;;10.70;10.40;;;;;;;;;;5051576;28;20167;-63
2022/04/22 03:25:30;;;;;;;18.25;17.50;;;;;;;;;;5034075;28;20229;-63
2022/04/22 03:27:56;;;;;;;14.67;14.17;;;;;;;;;;5052053;28;20515;-63
2022/04/22 03:30:22;;;;;;;5.72;5.47;;;;;;;;;;5051755;28;20425;-63
2022/04/22 03:32:49;;;;;;;8.50;8.30;;;;;;;;;;5051632;28;20174;-63
2022/04/22 03:35:15;;;;;;;16.83;16.23;;;;;;;;;;5051768;28;20431;-64
2022/04/22 03:37:42;;;;;;;14.25;13.75;;;;;;;;;;5051796;28;20735;-63
2022/04/22 03:40:10;;;;;;;20.85;19.85;;;;;;;;;;5051506;28;20172;-63
2022/04/22 03:42:36;;;;;;;22.77;21.63;;;;;;;;;;5051905;28;20167;-62
2022/04/22 03:45:03;;;;;;;19.83;18.92;;;;;;;;;;5051719;28;20620;-63
2022/04/22 03:47:28;;;;;;;17.80;17.00;;;;;;;;;;5052400;28;20183;-63
2022/04/22 03:49:54;;;;;;;13.47;13.03;;;;;;;;;;5051699;28;20642;-63
2022/04/22 03:52:21;;;;;;;12.73;12.32;;;;;;;;;;5051433;28;20414;-63
2022/04/22 03:54:47;;;;;;;1.50;1.50;;;;;;;;;;5051648;28;20272;-63
2022/04/22 03:59:57;;;;;;;2.05;1.95;;;;;;;;;;5051493;28;20180;-63
2022/04/22 04:02:23;;;;;;;1.65;1.65;;;;;;;;;;5051181;28;20262;-63
2022/04/22 04:04:50;;;;;;;1.37;1.37;;;;;;;;;;5051633;28;20270;-63
2022/04/22 04:07:16;;;;;;;2.83;2.72;;;;;;;;;;5051528;28;20447;-63
2022/04/22 04:17:56;;;;;;;5.72;5.63;;;;;;;;;;5051311;28;20248;-63
2022/04/22 04:23:17;;;;;;;18.33;17.55;;;;;;;;;;5051624;28;20401;-62
2022/04/22 04:25:44;;;;;;;3.50;3.40;;;;;;;;;;5059168;22;20251;-59
2022/04/22 04:28:10;;;;;;;13.35;12.80;;;;;;;;;;5022629;28;20179;-58
2022/04/22 04:30:40;;;;;;;20.90;19.90;;;;;;;;;;5031029;28;20180;-57
2022/04/22 04:33:07;;;;;;;17.38;16.67;;;;;;;;;;5033975;28;20634;-60
2022/04/22 04:35:34;;;;;;;19.65;18.75;;;;;;;;;;5034916;28;20249;-58
2022/04/22 04:38:00;;;;;;;16.92;16.23;;;;;;;;;;5035045;28;20255;-60
2022/04/22 04:40:26;;;;;;;14.65;14.07;;;;;;;;;;5033539;28;20671;-60
2022/04/22 04:42:55;;;;;;;13.27;12.77;;;;;;;;;;5034718;28;20219;-59
2022/04/22 04:45:21;;;;;;;12.25;11.85;;;;;;;;;;5034852;28;20462;-58
2022/04/22 04:47:47;;;;;;;13.90;13.40;;;;;;;;;;5034882;28;20183;-61
2022/04/22 04:50:13;;;;;;;13.32;12.82;;;;;;;;;;5034448;28;20259;-60
2022/04/22 04:52:41;;;;;;;11.70;11.30;;;;;;;;;;5034690;28;20210;-63
2022/04/22 04:55:08;;;;;;;14.38;13.88;;;;;;;;;;5034710;28;20537;-62
2022/04/22 04:57:34;;;;;;;3.30;3.17;;;;;;;;;;5034541;28;20212;-61
2022/04/22 05:00:01;;;;;;;10.63;10.23;;;;;;;;;;5034672;28;20183;-61
2022/04/22 05:02:26;;;;;;;16.85;16.15;;;;;;;;;;5034341;28;20183;-61
2022/04/22 05:04:52;;;;;;;11.27;10.90;;;;;;;;;;5034470;28;20266;-62
2022/04/22 05:07:20;;;;;;;8.80;8.50;;;;;;;;;;5034371;28;20495;-61
2022/04/22 05:09:46;;;;;;;9.07;8.88;;;;;;;;;;5034297;28;20414;-61
2022/04/22 05:12:12;;;;;;;11.60;11.20;;;;;;;;;;5033727;28;20183;-61
2022/04/22 05:14:38;;;;;;;9.20;8.80;;;;;;;;;;5034288;28;20430;-62
2022/04/22 05:17:04;;;;;;;9.35;9.05;;;;;;;;;;5034236;28;20942;-60
2022/04/22 05:19:30;;;;;;;9.10;8.80;;;;;;;;;;5033937;28;20183;-61
2022/04/22 05:21:56;;;;;;;8.83;8.53;;;;;;;;;;5034037;28;20176;-61
2022/04/22 05:24:22;;;;;;;10.00;9.70;;;;;;;;;;5033275;28;20450;-61
2022/04/22 05:26:48;;;;;;;9.15;8.80;;;;;;;;;;5033053;28;20892;-62
2022/04/22 05:34:44;;;;;;;2.95;2.85;;;;;;;;;;5034167;28;20732;-61
2022/04/22 05:37:10;;;;;;;2.20;2.10;;;;;;;;;;5034037;28;20212;-59
2022/04/22 05:39:36;;;;;;;2.57;2.47;;;;;;;;;;5033916;28;20786;-61
2022/04/22 05:42:02;;;;;;;3.13;3.00;;;;;;;;;;5031165;28;20423;-61
2022/04/22 05:44:28;;;;;;;1.05;1.05;;;;;;;;;;5032211;28;20434;-61
2022/04/22 05:46:55;;;;;;;1.60;1.60;;;;;;;;;;5033620;28;20358;-61
2022/04/22 05:49:21;;;;;;;1.50;1.50;;;;;;;;;;5033897;28;20570;-62
2022/04/22 05:51:47;;;;;;;2.63;2.53;;;;;;;;;;5033594;28;20177;-62
2022/04/22 05:54:13;;;;;;;1.53;1.53;;;;;;;;;;5033639;28;20192;-61
2022/04/22 05:56:39;;;;;;;2.13;2.03;;;;;;;;;;5033614;28;20461;-62
2022/04/22 05:59:04;;;;;;;1.67;1.67;;;;;;;;;;5032434;28;21473;-61
2022/04/22 06:01:30;;;;;;;1.27;1.27;;;;;;;;;;5033038;28;20423;-61
2022/04/22 06:03:56;;;;;;;1.83;1.80;;;;;;;;;;5033564;28;20469;-57
2022/04/22 06:06:23;;;;;;;2.20;2.10;;;;;;;;;;5033728;28;20802;-62
2022/04/22 06:11:33;;;;;;;2.13;2.03;;;;;;;;;;5027896;28;20234;-62
2022/04/22 06:13:59;;;;;;;2.85;2.75;;;;;;;;;;5041109;28;20756;-60
2022/04/22 06:16:25;;;;;;;1.87;1.87;;;;;;;;;;5039924;28;20208;-61
2022/04/22 06:18:51;;;;;;;2.15;2.05;;;;;;;;;;5038483;28;20455;-62
2022/04/22 06:21:17;;;;;;;1.63;1.63;;;;;;;;;;5027324;28;20201;-60
2022/04/22 06:23:43;;;;;;;2.55;2.45;;;;;;;;;;5041213;28;20529;-61
2022/04/22 06:26:09;;;;;;;2.17;2.08;;;;;;;;;;5040869;28;20212;-62
2022/04/22 06:28:35;;;;;;;2.83;2.72;;;;;;;;;;5038580;28;20196;-60
2022/04/22 06:31:02;;;;;;;2.55;2.45;;;;;;;;;;5037321;28;20217;-61
2022/04/22 06:33:28;;;;;;;2.58;2.47;;;;;;;;;;5037993;28;20607;-62
2022/04/22 06:35:54;;;;;;;2.92;2.83;;;;;;;;;;5036366;28;20204;-61
2022/04/22 06:38:21;;;;;;;2.42;2.33;;;;;;;;;;5038214;28;20180;-61
2022/04/22 06:46:17;;;;;;;2.05;1.95;;;;;;;;;;5037565;28;20245;-63
2022/04/22 06:48:43;;;;;;;2.22;2.13;;;;;;;;;;5041659;28;20226;-61
2022/04/22 06:51:10;;;;;;;1.85;1.80;;;;;;;;;;5040376;28;20184;-58
2022/04/22 06:53:36;;;;;;;1.80;1.70;;;;;;;;;;5042496;28;20187;-61
2022/04/22 06:56:04;;;;;;;2.72;2.63;;;;;;;;;;5040488;28;20200;-60
2022/04/22 06:58:33;;;;;;;3.40;3.30;;;;;;;;;;5040388;28;20258;-61
2022/04/22 07:00:59;;;;;;;2.40;2.30;;;;;;;;;;5042200;28;20168;-62
2022/04/22 07:03:25;;;;;;;2.65;2.55;;;;;;;;;;5040129;28;20654;-61
2022/04/22 07:05:52;;;;;;;3.05;2.95;;;;;;;;;;5040396;28;20587;-61
2022/04/22 07:08:19;;;;;;;3.67;3.47;;;;;;;;;;5040973;28;20634;-61
2022/04/22 07:10:47;;;;;;;2.10;2.00;;;;;;;;;;5031259;28;20191;-61
2022/04/22 07:13:16;;;;;;;1.90;1.90;;;;;;;;;;5032150;28;20172;-62
2022/04/22 07:15:43;;;;;;;2.40;2.30;;;;;;;;;;5031569;28;20196;-61
2022/04/22 07:18:10;;;;;;;1.88;1.85;;;;;;;;;;5032179;28;20172;-61
2022/04/22 07:20:36;;;;;;;2.95;2.85;;;;;;;;;;5031065;28;20173;-61
2022/04/22 07:23:03;;;;;;;2.75;2.65;;;;;;;;;;5032052;28;20173;-59
2022/04/22 07:25:29;;;;;;;2.55;2.45;;;;;;;;;;5031835;28;20224;-60
2022/04/22 07:27:55;;;;;;;1.80;1.80;;;;;;;;;;5030640;28;20264;-61
2022/04/22 07:30:22;;;;;;;3.38;3.22;;;;;;;;;;5031862;28;20794;-63
2022/04/22 07:32:49;;;;;;;1.80;1.80;;;;;;;;;;5032235;28;20177;-61
2022/04/22 07:35:19;;;;;;;2.33;2.22;;;;;;;;;;5022469;28;20196;-58
2022/04/22 07:37:46;;;;;;;2.45;2.35;;;;;;;;;;5031703;28;20632;-60
2022/04/22 07:40:13;;;;;;;3.67;3.47;;;;;;;;;;5031449;28;20169;-61
2022/04/22 07:42:42;;;;;;;2.70;2.60;;;;;;;;;;5031743;28;20496;-61
2022/04/22 07:47:53;;;;;;;1.70;1.70;;;;;;;;;;5031612;28;20187;-61
2022/04/22 07:50:19;;;;;;;3.58;3.38;;;;;;;;;;5030719;28;20227;-62
2022/04/22 07:52:46;;;;;;;1.88;1.88;;;;;;;;;;5030757;28;20184;-61
2022/04/22 07:55:13;;;;;;;3.30;3.20;;;;;;;;;;5029040;28;20323;-61
2022/04/22 07:57:40;;;;;;;1.50;1.50;;;;;;;;;;5029018;28;20205;-60
2022/04/22 08:00:07;;;;;;;4.13;3.92;;;;;;;;;;5030215;28;20176;-59
2022/04/22 08:02:33;;;;;;;2.00;2.00;;;;;;;;;;5030479;28;20172;-61
2022/04/22 08:04:59;;;;;;;1.42;1.42;;;;;;;;;;5030986;28;20203;-62
2022/04/22 08:07:25;;;;;;;2.55;2.45;;;;;;;;;;5029519;28;20199;-62
2022/04/22 08:09:51;;;;;;;3.17;3.07;;;;;;;;;;5026590;28;20189;-62
2022/04/22 08:12:19;;;;;;;1.97;1.97;;;;;;;;;;5030335;28;20437;-60
2022/04/22 08:14:45;;;;;;;2.63;2.53;;;;;;;;;;5030541;28;20547;-61
2022/04/22 08:17:11;;;;;;;2.87;2.77;;;;;;;;;;5030672;28;20963;-61
2022/04/22 08:19:37;;;;;;;1.60;1.60;;;;;;;;;;5029337;28;20760;-62
2022/04/22 08:22:03;;;;;;;1.77;1.77;;;;;;;;;;5030769;28;20378;-62
2022/04/22 08:24:29;;;;;;;1.80;1.80;;;;;;;;;;5030853;28;20437;-61
2022/04/22 08:26:57;;;;;;;1.30;1.30;;;;;;;;;;5031156;28;21021;-62
2022/04/22 08:29:23;;;;;;;1.20;1.20;;;;;;;;;;5030125;28;20454;-62
2022/04/22 08:31:50;;;;;;;1.67;1.67;;;;;;;;;;5030847;28;20411;-63
2022/04/22 08:34:16;;;;;;;1.67;1.67;;;;;;;;;;5030808;28;20435;-63
2022/04/22 08:36:43;;;;;;;1.20;1.20;;;;;;;;;;5030245;28;20452;-63
2022/04/22 08:39:09;;;;;;;1.40;1.40;;;;;;;;;;5029636;28;20388;-63
2022/04/22 08:41:36;;;;;;;1.23;1.23;;;;;;;;;;5030526;28;20462;-62
2022/04/22 08:44:02;;;;;;;1.50;1.50;;;;;;;;;;5030584;28;20391;-62
2022/04/22 08:52:00;;;;;;;0.93;0.93;;;;;;;;;;5028912;28;21017;-63
2022/04/22 08:54:27;;;;;;;1.60;1.60;;;;;;;;;;5029635;28;20500;-62
2022/04/22 08:56:54;;;;;;;1.67;1.67;;;;;;;;;;5027669;28;20431;-60
2022/04/22 08:59:20;;;;;;;1.10;1.10;;;;;;;;;;5030395;28;20420;-62
2022/04/22 09:01:46;;;;;;;0.87;0.87;;;;;;;;;;5029853;28;20397;-64
2022/04/22 09:04:12;;;;;;;1.00;1.00;;;;;;;;;;5030404;28;20425;-60
2022/04/22 09:06:38;;;;;;;1.00;1.00;;;;;;;;;;5029689;28;20420;-62
2022/04/22 09:09:05;;;;;;;1.37;1.37;;;;;;;;;;5029763;28;20434;-59
2022/04/22 09:11:31;;;;;;;1.10;1.10;;;;;;;;;;5030379;28;20798;-56
2022/04/22 09:14:00;;;;;;;1.20;1.20;;;;;;;;;;5030450;28;20391;-61
2022/04/22 09:16:26;;;;;;;0.87;0.87;;;;;;;;;;5030542;28;20468;-61
2022/04/22 09:18:59;;;;;;;1.20;1.20;;;;;;;;;;5032791;28;20389;-61
2022/04/22 09:21:25;;;;;;;1.27;1.27;;;;;;;;;;5033873;28;20402;-60
2022/04/22 09:23:53;;;;;;;0.90;0.90;;;;;;;;;;5034040;28;20503;-56
2022/04/22 09:26:22;;;;;;;0.80;0.80;;;;;;;;;;5034192;28;20510;-61
2022/04/22 09:29:02;;;;;;;1.77;1.77;;;;;;;;;;5016475;28;20491;-62
2022/04/22 09:31:28;;;;;;;1.30;1.30;;;;;;;;;;5033927;28;20418;-60
2022/04/22 09:33:55;;;;;;;1.17;1.17;;;;;;;;;;5033836;28;20466;-61
2022/04/22 09:45:03;;;;;;;1.93;1.93;;;;;;;;;;5033504;28;20879;-63
2022/04/22 09:47:30;;;;;;;1.30;1.30;;;;;;;;;;5033893;28;20927;-62
2022/04/22 09:49:56;;;;;;;1.90;1.90;;;;;;;;;;5033838;28;20452;-62
2022/04/22 09:52:29;;;;;;;2.87;2.80;;;;;;;;;;5033512;28;20379;-63
2022/04/22 09:54:57;;;;;;;4.37;4.27;;;;;;;;;;5033715;28;20396;-59
2022/04/22 09:57:23;;;;;;;3.23;3.20;;;;;;;;;;5033697;28;20458;-61
2022/04/22 09:59:50;;;;;;;5.73;5.63;;;;;;;;;;5033469;28;20491;-63
2022/04/22 10:02:19;;;;;;;10.17;9.87;;;;;;;;;;5033266;28;20415;-63
2022/04/22 10:04:45;;;;;;;7.20;7.00;;;;;;;;;;5033312;28;20784;-63
2022/04/22 10:07:11;;;;;;;7.40;7.30;;;;;;;;;;5033236;28;20497;-60
2022/04/22 10:09:38;;;;;;;10.37;10.13;;;;;;;;;;5033323;28;20800;-61
2022/04/22 10:12:06;;;;;;;20.73;20.13;;;;;;;;;;5032010;28;20428;-61
2022/04/22 10:14:41;;;;;;;16.03;15.63;;;;;;;;;;5033212;28;20898;-60
2022/04/22 10:17:07;;;;;;;5.37;5.27;;;;;;;;;;5033200;28;20450;-62
2022/04/22 10:19:34;;;;;;;4.43;4.33;;;;;;;;;;5033233;28;20404;-60
2022/04/22 10:22:03;;;;;;;8.73;8.53;;;;;;;;;;5031178;28;20794;-63
2022/04/22 10:24:31;;;;;;;8.30;8.10;;;;;;;;;;5033013;28;20451;-61
2022/04/22 10:26:58;;;;;;;18.17;17.07;;;;;;;;;;5048057;22;20465;-64
2022/04/22 10:29:24;;;;;;;8.30;8.00;;;;;;;;;;5016436;28;20434;-63
2022/04/22 10:31:51;;;;;;;8.10;7.90;;;;;;;;;;5031561;28;20400;-63
2022/04/22 10:34:17;;;;;;;11.20;10.90;;;;;;;;;;5032122;28;20836;-64
2022/04/22 10:36:44;;;;;;;7.40;7.20;;;;;;;;;;5030016;28;20461;-63
2022/04/22 10:39:10;;;;;;;6.97;6.77;;;;;;;;;;5030672;28;20405;-63
2022/04/22 10:41:48;;;;;;;14.37;13.93;;;;;;;;;;5029324;28;20367;-63
2022/04/22 10:47:14;;;;;;;5.03;4.93;;;;;;;;;;5030783;28;20769;-63
2022/04/22 10:49:42;;;;;;;7.63;7.43;;;;;;;;;;5031134;28;20413;-63
2022/04/22 10:52:18;;;;;;;4.00;3.90;;;;;;;;;;5031225;28;20409;-63
2022/04/22 10:54:52;;;;;;;4.40;4.30;;;;;;;;;;5031684;28;20437;-64
2022/04/22 10:57:33;;;;;;;3.73;3.63;;;;;;;;;;5031722;28;20459;-63
2022/04/22 11:00:11;;;;;;;4.97;4.87;;;;;;;;;;5030699;28;20413;-63
2022/04/22 11:02:40;;;;;;;3.47;3.37;;;;;;;;;;5031317;28;20400;-63
2022/04/22 11:05:22;;;;;;;3.50;3.50;;;;;;;;;;5031654;28;20420;-63
2022/04/22 11:07:57;;;;;;;3.77;3.73;;;;;;;;;;5031631;28;20418;-63
2022/04/22 11:10:25;;;;;;;7.97;7.67;;;;;;;;;;5030613;28;20807;-63
2022/04/22 11:12:57;;;;;;;6.67;6.57;;;;;;;;;;5032305;28;20498;-63
2022/04/22 11:15:42;;;;;;;11.03;10.73;;;;;;;;;;5032294;28;20397;-63
2022/04/22 11:18:12;;;;;;;8.40;8.20;;;;;;;;;;5031859;28;20562;-63
2022/04/22 11:20:38;;;;;;;16.27;15.80;;;;;;;;;;5031319;28;20415;-63
2022/04/22 11:23:09;;;;;;;26.40;25.63;;;;;;;;;;5031799;28;20434;-63
2022/04/22 11:25:35;;;;;;;10.47;10.27;;;;;;;;;;5032142;28;20450;-63
2022/04/22 11:28:02;;;;;;;1.83;1.83;;;;;;;;;;5031878;28;20439;-63
2022/04/22 11:30:29;;;;;;;1.63;1.63;;;;;;;;;;5031909;28;20906;-63
2022/04/22 11:33:02;;;;;;;1.80;1.80;;;;;;;;;;5032468;28;20408;-64
2022/04/22 11:35:34;;;;;;;1.50;1.50;;;;;;;;;;5031766;28;20925;-63
2022/04/22 11:38:01;;;;;;;19.93;19.33;;;;;;;;;;5031175;28;20421;-63
2022/04/22 11:40:27;;;;;;;11.37;11.13;;;;;;;;;;5031592;28;20400;-63
2022/04/22 11:42:54;;;;;;;19.40;18.87;;;;;;;;;;5030848;28;20399;-63
2022/04/22 11:45:21;;;;;;;9.40;9.20;;;;;;;;;;5031329;28;20407;-63
2022/04/22 11:47:47;;;;;;;16.03;15.53;;;;;;;;;;5031695;28;20425;-63
2022/04/22 11:50:20;;;;;;;7.23;7.03;;;;;;;;;;5031511;28;20405;-63
2022/04/22 11:52:58;;;;;;;7.40;7.20;;;;;;;;;;5031623;28;20414;-63
2022/04/22 11:55:24;;;;;;;5.03;4.93;;;;;;;;;;5031719;28;20423;-63
2022/04/22 11:57:50;;;;;;;6.17;5.93;;;;;;;;;;5030388;28;20470;-63
2022/04/22 12:05:50;;;;;;;11.53;11.20;;;;;;;;;;5030591;28;20456;-62
2022/04/22 12:08:16;;;;;;;15.20;14.80;;;;;;;;;;5031191;28;20428;-63
2022/04/22 12:10:46;;;;;;;15.00;14.60;;;;;;;;;;5031297;28;20436;-63
2022/04/22 12:13:14;;;;;;;18.60;18.10;;;;;;;;;;5031384;28;20906;-63
2022/04/22 12:15:43;;;;;;;22.07;21.47;;;;;;;;;;5031352;28;20375;-62
2022/04/22 12:18:24;;;;;;;22.63;22.03;;;;;;;;;;5031521;28;20409;-62
2022/04/22 12:20:50;;;;;;;17.97;17.47;;;;;;;;;;5031227;28;20879;-62
2022/04/22 12:23:15;;;;;;;30.60;29.70;;;;;;;;;;5031555;28;20403;-62
2022/04/22 12:25:52;;;;;;;2.90;2.90;;;;;;;;;;5031394;28;20874;-62
2022/04/22 12:28:20;;;;;;;31.63;30.73;;;;;;;;;;5029763;28;20447;-62
2022/04/22 12:30:46;;;;;;;34.83;33.83;;;;;;;;;;5030819;28;20455;-62
2022/04/22 12:33:23;;;;;;;49.27;47.67;;;;;;;;;;5031003;28;20427;-62
2022/04/22 12:35:49;;;;;;;53.30;51.50;;;;;;;;;;5031123;28;20416;-62
2022/04/22 12:38:15;;;;;;;38.07;36.90;;;;;;;;;;5029890;28;20426;-62
2022/04/22 12:40:45;;;;;;;29.33;28.30;;;;;;;;;;5029535;28;20400;-62
2022/04/22 12:43:41;;;;;;;36.10;35.00;;;;;;;;;;5029708;28;20374;-62
2022/04/22 12:52:34;;;;;;;2.83;2.80;;;;;;;;;;5030178;28;20406;-62
2022/04/22 12:55:04;;;;;;;3.37;3.37;;;;;;;;;;4993247;28;20417;-63
2022/04/22 12:57:30;;;;;;;39.50;38.33;;;;;;;;;;4993227;28;20444;-63
2022/04/22 12:59:57;;;;;;;29.73;28.87;;;;;;;;;;5014225;28;20882;-63
2022/04/22 13:02:27;;;;;;;26.90;26.10;;;;;;;;;;5034589;28;20374;-63
2022/04/22 13:04:54;;;;;;;7.80;7.70;;;;;;;;;;5034983;28;20992;-63
2022/04/22 13:07:21;;;;;;;13.00;12.63;;;;;;;;;;5034757;28;20423;-63
2022/04/22 13:09:47;;;;;;;20.40;19.90;;;;;;;;;;5034864;28;20382;-63
2022/04/22 13:12:13;;;;;;;30.30;29.40;;;;;;;;;;5034591;28;21116;-63
2022/04/22 13:14:39;;;;;;;27.17;26.37;;;;;;;;;;5034666;28;20378;-63
2022/04/22 13:17:05;;;;;;;29.33;28.43;;;;;;;;;;5034452;28;20465;-62
2022/04/22 13:19:31;;;;;;;27.50;26.73;;;;;;;;;;5034520;28;20396;-62
2022/04/22 13:21:57;;;;;;;30.53;29.53;;;;;;;;;;5034318;28;20453;-62
2022/04/22 13:24:23;;;;;;;40.80;39.50;;;;;;;;;;5034479;28;20407;-62
2022/04/22 13:26:49;;;;;;;28.67;27.87;;;;;;;;;;5034195;28;20488;-62
2022/04/22 13:29:16;;;;;;;25.10;24.37;;;;;;;;;;5034374;28;20439;-62
2022/04/22 13:31:42;;;;;;;27.30;26.50;;;;;;;;;;5034135;28;20442;-63
2022/04/22 13:34:08;;;;;;;29.07;28.17;;;;;;;;;;5034259;28;20411;-63
2022/04/22 13:36:37;;;;;;;30.10;29.17;;;;;;;;;;5034104;28;20513;-62
2022/04/22 13:39:03;;;;;;;45.33;43.90;;;;;;;;;;5034452;28;20899;-62
2022/04/22 13:41:29;;;;;;;67.37;65.07;;;;;;;;;;5034000;28;20891;-62
2022/04/22 13:43:55;;;;;;;42.47;41.10;;;;;;;;;;5034025;28;20378;-62
2022/04/22 13:54:35;;;;;;;18.30;17.80;;;;;;;;;;5033981;28;20458;-62
2022/04/22 13:57:01;;;;;;;21.60;21.00;;;;;;;;;;5033769;28;20459;-62
2022/04/22 13:59:27;;;;;;;32.90;31.87;;;;;;;;;;5033787;28;20806;-62
2022/04/22 14:01:53;;;;;;;19.80;19.30;;;;;;;;;;5033573;28;20421;-62
2022/04/22 14:04:19;;;;;;;25.50;24.70;;;;;;;;;;5032779;28;20839;-62
2022/04/22 14:06:45;;;;;;;25.90;25.10;;;;;;;;;;5033516;28;20418;-62
2022/04/22 14:09:10;;;;;;;16.40;16.00;;;;;;;;;;5033690;28;20871;-62
2022/04/22 14:11:36;;;;;;;24.07;23.37;;;;;;;;;;5033454;28;20430;-62
2022/04/22 14:14:03;;;;;;;27.23;26.43;;;;;;;;;;5033632;28;20791;-62
2022/04/22 14:16:30;;;;;;;27.30;26.50;;;;;;;;;;5033573;28;20946;-63
2022/04/22 14:18:56;;;;;;;20.47;19.80;;;;;;;;;;5033384;28;20880;-62
2022/04/22 14:21:22;;;;;;;17.70;17.20;;;;;;;;;;5033196;28;20378;-63
2022/04/22 14:23:48;;;;;;;15.37;14.97;;;;;;;;;;5033491;28;20380;-63
2022/04/22 14:26:14;;;;;;;14.20;13.90;;;;;;;;;;5033403;28;20765;-63
2022/04/22 14:28:41;;;;;;;10.80;10.57;;;;;;;;;;5033167;28;20425;-62
2022/04/22 14:31:08;;;;;;;14.43;14.13;;;;;;;;;;5032990;28;20456;-63
2022/04/22 14:33:34;;;;;;;7.13;7.03;;;;;;;;;;5033223;28;20393;-63
2022/04/22 14:36:02;;;;;;;13.00;12.63;;;;;;;;;;5033065;28;20459;-63
2022/04/22 14:38:28;;;;;;;11.77;11.47;;;;;;;;;;5033282;28;20463;-63
2022/04/22 14:40:54;;;;;;;1.30;1.30;;;;;;;;;;5032231;28;20450;-63
2022/04/22 14:43:20;;;;;;;2.53;2.43;;;;;;;;;;5033129;28;20876;-63
2022/04/22 14:45:46;;;;;;;1.63;1.63;;;;;;;;;;5033097;28;20491;-63
2022/04/22 14:48:12;;;;;;;1.50;1.50;;;;;;;;;;5032960;28;20477;-63
2022/04/22 14:50:38;;;;;;;1.67;1.67;;;;;;;;;;5032586;28;20403;-63
2022/04/22 14:53:04;;;;;;;2.10;2.10;;;;;;;;;;5032972;28;20470;-62
2022/04/22 14:55:30;;;;;;;1.70;1.70;;;;;;;;;;5032609;28;20382;-62
2022/04/22 14:57:56;;;;;;;1.57;1.57;;;;;;;;;;5029307;28;20569;-63
2022/04/22 15:00:22;;;;;;;2.83;2.73;;;;;;;;;;5032474;28;20477;-63
2022/04/22 15:02:48;;;;;;;1.60;1.60;;;;;;;;;;5032495;28;20416;-63
2022/04/22 15:05:14;;;;;;;1.60;1.60;;;;;;;;;;5032581;28;20415;-64
2022/04/22 15:07:40;;;;;;;1.70;1.70;;;;;;;;;;5032467;28;20427;-63
2022/04/22 15:10:06;;;;;;;1.77;1.77;;;;;;;;;;5032199;28;20408;-62
2022/04/22 15:12:32;;;;;;;1.67;1.67;;;;;;;;;;5032532;28;20575;-63
2022/04/22 15:14:58;;;;;;;1.63;1.63;;;;;;;;;;5032481;28;20506;-63
2022/04/22 15:25:39;;;;;;;1.70;1.70;;;;;;;;;;5032252;28;20516;-60
2022/04/22 15:28:06;;;;;;;1.63;1.63;;;;;;;;;;5032077;28;20418;-63
2022/04/22 15:30:51;;;;;;;1.70;1.70;;;;;;;;;;5032116;28;20426;-62
2022/04/22 15:33:17;;;;;;;1.40;1.40;;;;;;;;;;5032217;28;20746;-63
2022/04/22 15:35:43;;;;;;;1.33;1.33;;;;;;;;;;5031946;28;20403;-62
2022/04/22 15:38:09;;;;;;;2.20;2.20;;;;;;;;;;5031576;28;20840;-63
2022/04/22 15:40:35;;;;;;;2.77;2.70;;;;;;;;;;5021238;28;20964;-62
2022/04/22 15:43:01;;;;;;;1.30;1.30;;;;;;;;;;5024153;28;20411;-63
2022/04/22 15:45:27;;;;;;;1.77;1.77;;;;;;;;;;5031875;28;20408;-61
2022/04/22 15:47:53;;;;;;;2.20;2.20;;;;;;;;;;5029505;28;20863;-62
2022/04/22 15:50:19;;;;;;;2.17;2.13;;;;;;;;;;5030973;28;20410;-63
2022/04/22 15:52:45;;;;;;;1.87;1.87;;;;;;;;;;5015633;28;20390;-63
2022/04/22 15:55:11;;;;;;;1.90;1.90;;;;;;;;;;5027168;28;20454;-63
2022/04/22 15:57:37;;;;;;;1.77;1.77;;;;;;;;;;5029266;28;20491;-63